Weslaco, Texas
Current Conditions -  °F | °C
As of 3:55 PM on Thursday 27 Nov 2014 (Local Time) from KT65 Reporting Station
Clear Clear  
Wind Chill: 76°   Ceiling: Unl
Heat Index: 76°   Visibility: 7mi
Dew Point: 49°   Wind: 8mph
Humidity: 38%   Direction: 110°ESE
Pressure: 30.33"   Gusts: NA
Location:  26.16°N, 97.99°W
Report Text: KT65 272155Z AUTO 11007KT 7SM CLR 24/09 A3033 RMK AO2 T02430092
Loading
Personal Weather Stations






























Interactive Weather Map New forecast layout! Learn more

10-Day Weather Forecast

Advertisements
Track Severe Weather on mobile